This is the latest recevied weather packets stored in our database for station/object N5DGC. If no packets are shown the sender has not sent any weather packets the latest 1 day(s).
| Time | Temp. | Humidity | Pressure | Rain* | Wind** | Luminosity | Snow |
|---|---|---|---|---|---|---|---|
| 1778019872 | 18.89° C | 39% | 1229.6 hPa | 0 mm | - | 650 W/m² | - |
| 1778018055 | 16.67° C | 45% | 1230.4 hPa | 0 mm | - | 794 W/m² | - |
| 1778017147 | 16.11° C | 53% | 1230.6 hPa | 0 mm | - | 492 W/m² | - |
| 1778015934 | 16.11° C | 47% | 1230.3 hPa | 0 mm | - | 167 W/m² | - |
| 1778015025 | 17.22° C | 41% | 1230.4 hPa | 0 mm | - | 192 W/m² | - |
| 1778014420 | 17.22° C | 40% | 1230.3 hPa | 0 mm | - | 286 W/m² | - |
| 1778012297 | 16.11° C | 45% | 1230.7 hPa | 0 mm | - | 937 W/m² | - |
| 1778011693 | 16.11° C | 45% | 1230.8 hPa | 0 mm | - | 848 W/m² | - |
| 1778009575 | 16.67° C | 44% | 1231.4 hPa | 0 mm | - | 648 W/m² | - |
| 1778009273 | 16.11° C | 44% | 1231.3 hPa | 0 mm | - | 774 W/m² | - |
| 1778008668 | 14.44° C | 48% | 1231.4 hPa | 0 mm | - | 1070 W/m² | - |
| 1778007454 | 14.44° C | 47% | 1231.5 hPa | 0 mm | - | 159 W/m² | - |
| 1778005028 | 14.44° C | 52% | 1231.8 hPa | 0 mm | - | 234 W/m² | - |
| 1778004726 | 14.44° C | 54% | 1231.8 hPa | 0 mm | - | 234 W/m² | - |
| 1778004119 | 13.89° C | 61% | 1231.7 hPa | 0 mm | - | 500 W/m² | - |
| 1778003208 | 15.56° C | 42% | 1231.3 hPa | 0 mm | - | 143 W/m² | - |
| 1778002601 | 16.11° C | 41% | 1231.3 hPa | 0 mm | - | 386 W/m² | - |
| 1778001692 | 15° C | 44% | 1231.1 hPa | 0 mm | - | 586 W/m² | - |
| 1778000781 | 13.89° C | 45% | 1231.4 hPa | 0 mm | - | 293 W/m² | - |
| 1777997447 | 12.78° C | 48% | 1231.7 hPa | 0 mm | - | 305 W/m² | - |
* Rain latest hour (hover to see other rain measurements)
** Current wind speed in m/s (hover to see current wind gust speed)